Lahaina Weather    as of  Mon 09:32 07/06      Conditions     METAR     Leeward Waters     Hawaiian Islands     Policies
TODAY
Sunny. Isolated showers morning. Highs 84-89. East winds 10-15 mph. Chance rain 20%.
TONIGHT
Mostly clear. Breezy. Isolated showers evening. Lows 71-78. East winds 15-20 mph. Chance rain 20%.
TUESDAY
Mostly sunny. Breezy. Isolated showers morning. Highs 85-90. East winds 15-20 mph. Chance rain 20%.
TUESDAY NIGHT
Partly cloudy. Breezy. Isolated showers evening. Lows 72-79. East winds 15-20 mph. Chance rain 20%.
WEDNESDAY
Breezy. Partly sunny with isolated showers. Highs 84-89. Northeast winds 15-20 mph. Chance rain 20%.
Maui Satellite
Expected Radar Hazards
Predominant Wx
Radar
Hazard Chart
Windspeed Forecast Wind Gust Forecast Tropical Outlook
Windspeed Chart
Windgust Chart
Satellite

Current Conditions TOP

LocationWeatherTemp (F)Wind
Speed
Wind
Gusts
Wind
Dir
VisibilityDewpointPressure
(mb)
Lahaina - West MauiMostly Cloudy81.015.0--North15.0068.0--
Lanai CityMostly Cloudy75.011.5--Northeast10.0066.01015.1
KaunakakaiPartly Cloudy79.010.418.4Northeast10.0068.01016.2
KahuluiPartly Cloudy84.018.423.0Northeast10.0068.01016.2
HonoluluPartly Cloudy83.010.4--Northeast10.0068.01015.2
Kailua / KonaMostly Cloudy82.08.1--South10.0070.01014.0

METAR TOP

PHJH 061845Z 01013KT 15SM SCT035 BKN045 27/20 A2999
PHNY 061858Z AUTO 03010KT 10SM BKN031 BKN039 24/19 A3004 RMK AO2
PHMK 061854Z 03009G16KT 10SM FEW021 SCT033 SCT042 26/20 A3001 RMK
PHOG 061854Z 05016G20KT 10SM FEW036 SCT055 29/20 A2999 RMK AO2
PHNL 061853Z 04009KT 10SM FEW026 SCT040 SCT048 28/20 A2998 RMK AO2
PHKO 061853Z 17007KT 10SM FEW042 BKN060 28/21 A2994 RMK AO2 SLP140
Tap to learn about METAR'

Leeward Waters Forecasts TOP

MAUI COUNTY LEEWARD WATERS forecast MAALAEA BAY forecast PAILOLO CHANNEL forecast
SYNOPSIS FOR HAWAIIAN COASTAL WATERS
The trades will continue-increase during the next several days as high pressure gradually strengthens north the islands. A low pressure system could possibly approach the Big Island Friday night.
SYNOPSIS FOR HAWAIIAN COASTAL WATERS
The trades will continue-increase during the next several days as high pressure gradually strengthens north the islands. A low pressure system could possibly approach the Big Island Friday night.
SYNOPSIS FOR HAWAIIAN COASTAL WATERS
The trades will continue-increase during the next several days as high pressure gradually strengthens north the islands. A low pressure system could possibly approach the Big Island Friday night.
TODAY
Northeast winds 15 kt. Wind waves 5 ft. Southwest swell 3 ft.
TODAY
Northeast winds 15 kt. Wind waves 5 ft. Southwest swell 3 ft.
TODAY
Northeast winds 15 kt. Wind waves 5 ft. Southwest swell 3 ft.
TONIGHT
Northeast winds 15 kt. Wind waves 6 ft. Southwest swell 3 ft. Swell northwest 3 ft. Isolated showers evening.
TONIGHT
Northeast winds 15 kt. Wind waves 6 ft. Southwest swell 3 ft. Swell northwest 3 ft. Isolated showers evening.
TONIGHT
Northeast winds 15 kt. Wind waves 6 ft. Southwest swell 3 ft. Swell northwest 3 ft. Isolated showers evening.
TUESDAY
Northeast winds 15 kt. Wind waves 6 ft. Southwest swell 3 ft and northwest 3 ft.
TODAY
Northeast winds-25 kt. Wind waves 6 ft.
TODAY
Northeast winds-25 kt. Wind waves 9 ft. Southwest swell 3 ft.
TUESDAY NIGHT
Northeast winds 15 kt. Wind waves 6 ft. Southwest swell 3 ft and northwest 3 ft. Isolated showers evening.
TUESDAY
Northeast winds 15 kt. Wind waves 6 ft. Southwest swell 3 ft and northwest 3 ft.
TUESDAY
Northeast winds 15 kt. Wind waves 6 ft. Southwest swell 3 ft and northwest 3 ft.

Hawaiian Islands Weather TOP

Synopsis: Trade winds will increase through the week as high pressure builds in north the area. Clouds and passing showers will favor windward and mauka areas but most showers are expected-be light and brief.
Discussion: There is little change in overall forecast philosophy from last evening. However, we are transitioning-a trade wind pattern a bit faster than anticipated. Troughing-the north and west the main Hawaiian islands continues-lift northward this morning, allowing the subtropical ridge-our northeast-rebound westward. This is steepening the pressure gradient across our area resulting in steadily increasing easterly trade winds. An ascat pass last evening showed wind speeds had already reached into the 15-20 mph range. Overnight soundings show persistent subsidence inversions ...
Aviation: Broken low clouds with embedded showers will be passing through the islands through mid morning, affecting primarily the windward and mountain areas with tempo MVFR conds. Coverage these clouds and showers will not be widespread enough-warrant airmet sierra for mtn obscuration, however. Expect less showers, and clouds by noon. The Kona and Kau slopes will have their normal cloud buildup during the late morning and early afternoon hours, with brief MVFR cigs and vis from the isol showers. The trade winds will be strengthening as the day progresses, likely requiring an airmet tango ...
Marine: Trade winds are recovering more quickly than expected, and models are strongly suggesting small craft advisory conditions may occur as early as this afternoon for the traditionally windy waters near Maui and the Big Island. A small craft advisory for these areas is therefore in effect through early Wednesday morning. This advisory may have-be extended as trade winds continue-strengthen through the week. The current south swell will continue-lower today. Another swell is expected-fill in tonight and Tuesday. Surf heights may once again approach low end advisory levels. We ...

Policies TOP

Terms of Service
USE THIS SITE AT YOUR OWN RISK!!! This page is an artistic expression not scientific communication. No warranties expressed or implied. None. Zip. Nada. This entertainment site is a programming exercise for retrieving NOAA/NWS/NASA data and experimenting with layout. No site data are verified. Timeliness not assured. Browsers other than Chrome might be sad.

Privacy
lahainaweather.com (or .org, .net) does NOT request, record nor retain any personally identifiable information. Page views may be counted. Caller's IP address may be logged.